Weather observations for the past three days for
San Jose / Reid / Hillv
Metric (Imperial)
Date Time (pdt) Wind (kph) Vis. (km) Weather Sky Cond. Temperature (ºC) Relative Humidity Wind Chill (°C) Heat Index (°C) Pressure Precipitation (cm)
Air Dwpt 6 hour altimeter (cm) sea level (mb) 1 hr 3 hr 6 hr
Max. Min.
06 09:47 N 7 16.09 Mostly Cloudy BKN020 17 10 64% 76.58 0.0
06 08:47 Calm 16.09 Mostly Cloudy BKN020 16 11 72% 76.58 0.0
06 07:47 Calm 16.09 Mostly Cloudy BKN030 15 10 72% 76.58 0.0
06 06:58 Calm 16.09 Mostly Cloudy BKN030 13 10 82% 76.56 0.0
05 21:50 NW 13 16.09 Overcast OVC030 15 10 72% 76.35 0.0
05 20:50 N 9 16.09 Overcast BKN025 OVC040 16 10 68% 76.3 0.0
05 19:47 N 11 16.09 Mostly Cloudy BKN050 16 10 68% 76.25 0.0
05 18:47 NW 13 16.09 Overcast BKN030 OVC050 17 10 64% 76.23 0.0
05 17:47 Calm 16.09 Overcast BKN030 OVC050 17 9 60% 76.23 0.0
05 16:47 NW 7 16.09 Overcast BKN030 OVC040 17 9 60% 76.2 0.0
05 15:47 NW 7 16.09 Overcast BKN020 OVC040 19 9 52% 76.23 0.0
05 14:47 Calm 16.09 Overcast BKN020 OVC040 17 10 64% 76.25 0.0
05 13:47 NW 6 16.09 Overcast BKN020 OVC040 16 10 68% 76.25 0.0
05 12:47 Calm 12.87 Overcast BKN018 OVC040 14 10 77% 76.28 0.0
05 10:47 N 6 16.09 Overcast BKN018 OVC050 14 9 72% 76.25 0.0
05 09:47 NW 7 16.09 Overcast BKN020 OVC050 13 9 77% 76.23 0.0
05 08:47 Calm 16.09 Mostly Cloudy SCT015 BKN039 13 9 77% 76.23 0.0
05 07:47 Calm 16.09 Mostly Cloudy SCT010 BKN030 13 9 77% 76.17 0.0
05 06:55 Calm 16.09 Mostly Cloudy SCT010 BKN030 12 9 82% 76.17 0.0
04 21:55 NW 11 16.09 Mostly Cloudy BKN055 14 9 72% 76.2 0.0
04 20:58 NW 15 16.09 Mostly Cloudy BKN055 15 8 63% 76.17 0.0
04 19:47 NW 15 16.09 Mostly Cloudy BKN055 16 7 55% 76.12 0.0
04 15:59 NW 22 16.09 Mostly Cloudy SCT038 BKN055 18 8 52% 76.12 0.0
04 14:47 NW 9 16.09 Mostly Cloudy SCT038 BKN055 18 8 52% 76.15 0.0
04 13:55 NW 17 16.09 Mostly Cloudy SCT038 BKN055 18 8 52% 76.15 0.0
04 12:47 W 7 16.09 Mostly Cloudy SCT045 BKN050 21 7 40% 76.17 0.0
04 11:47 W 7 16.09 Partly Cloudy SCT045 19 7 46% 76.17 0.0
04 10:55 NW 9 16.09 Partly Cloudy SCT045 18 7 49% 76.2 0.0
04 09:49 NE 7 16.09 A Few Clouds FEW030 16 7 55% 76.17 0.0
04 08:47 Calm 16.09 A Few Clouds FEW030 15 7 59% 76.2 0.0
04 07:47 Calm 16.09 A Few Clouds FEW030 12 7 72% 76.2 0.0
04 06:55 Calm 16.09 A Few Clouds FEW030 10 7 82% 76.17 0.0
03 21:47 NW 11 16.09 Partly Cloudy SCT040 14 7 63% 76.12 0.0
03 20:47 W 15 16.09 Partly Cloudy SCT040 14 7 63% 76.07 0.0
03 19:47 W 9 16.09 Partly Cloudy SCT040 16 7 55% 76 0.0
03 17:47 W 9 16.09 Mostly Cloudy BKN035 19 6 43% 75.97 0.0
03 16:47 W 11 16.09 Mostly Cloudy BKN035 18 7 49% 75.95 0.0
03 15:58 SW 15 16.09 NULL NULL 18 7 49% 75.97 0.0
03 13:47 Calm 16.09 Mostly Cloudy BKN035 17 8 56% 76 0.0
03 12:47 NW 6 16.09 Mostly Cloudy BKN035 17 8 56% 76.02 0.0
03 11:47 SW 7 16.09 Mostly Cloudy BKN030 16 8 59% 76.05 0.0
03 10:47 SW 7 16.09 Mostly Cloudy BKN030 16 8 59% 76.05 0.0
Date Time (pdt) Wind (kph) Vis. (km) Weather Sky Cond. Air Dwpt Max. Min. Relative Humidity Wind Chill (°C) Heat Index (°C) altimeter (cm) sea level (mb) 1 hr 3 hr 6 hr
6 hour
Temperature (ºC) Pressure Precipitation (cm)